sensor_id;sensor_type;location;lat;lon;timestamp;pressure;altitude;pressure_sealevel;temperature;humidity
2339;BME280;1180;51.438;6.978;2023-02-02T00:00:43;100700.94;;;8.56;100.00
2339;BME280;1180;51.438;6.978;2023-02-02T00:03:09;100710.03;;;8.63;100.00
2339;BME280;1180;51.438;6.978;2023-02-02T00:05:35;100709.59;;;8.53;100.00
2339;BME280;1180;51.438;6.978;2023-02-02T00:08:00;100709.84;;;8.47;100.00
2339;BME280;1180;51.438;6.978;2023-02-02T00:10:26;100719.22;;;8.46;100.00
2339;BME280;1180;51.438;6.978;2023-02-02T00:12:52;100710.50;;;8.52;100.00
2339;BME280;1180;51.438;6.978;2023-02-02T00:15:18;100713.09;;;8.50;100.00
2339;BME280;1180;51.438;6.978;2023-02-02T00:17:43;100706.94;;;8.55;100.00
2339;BME280;1180;51.438;6.978;2023-02-02T00:20:09;100711.59;;;8.65;100.00
2339;BME280;1180;51.438;6.978;2023-02-02T00:22:34;100713.06;;;8.52;100.00
2339;BME280;1180;51.438;6.978;2023-02-02T00:25:00;100718.59;;;8.41;100.00
2339;BME280;1180;51.438;6.978;2023-02-02T00:27:25;100715.66;;;8.30;100.00
2339;BME280;1180;51.438;6.978;2023-02-02T00:29:50;100717.06;;;7.95;100.00
2339;BME280;1180;51.438;6.978;2023-02-02T00:32:18;100711.69;;;8.02;100.00
2339;BME280;1180;51.438;6.978;2023-02-02T00:34:44;100710.53;;;7.88;100.00
2339;BME280;1180;51.438;6.978;2023-02-02T00:37:09;100707.91;;;7.90;100.00
2339;BME280;1180;51.438;6.978;2023-02-02T00:39:34;100706.06;;;8.14;100.00
2339;BME280;1180;51.438;6.978;2023-02-02T00:42:00;100718.28;;;8.28;100.00
2339;BME280;1180;51.438;6.978;2023-02-02T00:44:25;100716.94;;;8.40;100.00
2339;BME280;1180;51.438;6.978;2023-02-02T00:47:09;100705.38;;;8.52;100.00
2339;BME280;1180;51.438;6.978;2023-02-02T00:49:34;100695.44;;;8.44;100.00
2339;BME280;1180;51.438;6.978;2023-02-02T00:52:00;100704.06;;;8.62;100.00
2339;BME280;1180;51.438;6.978;2023-02-02T00:54:25;100707.13;;;8.71;100.00
2339;BME280;1180;51.438;6.978;2023-02-02T00:56:51;100710.44;;;8.73;100.00
2339;BME280;1180;51.438;6.978;2023-02-02T00:59:16;100717.06;;;8.58;100.00
2339;BME280;1180;51.438;6.978;2023-02-02T01:01:41;100719.91;;;8.71;100.00
2339;BME280;1180;51.438;6.978;2023-02-02T01:04:07;100718.81;;;8.76;100.00
2339;BME280;1180;51.438;6.978;2023-02-02T01:06:32;100717.34;;;8.90;100.00
2339;BME280;1180;51.438;6.978;2023-02-02T01:08:57;100707.78;;;8.95;100.00
2339;BME280;1180;51.438;6.978;2023-02-02T01:11:23;100704.94;;;9.01;100.00
2339;BME280;1180;51.438;6.978;2023-02-02T01:13:49;100721.38;;;8.95;100.00
2339;BME280;1180;51.438;6.978;2023-02-02T01:16:15;100705.69;;;9.03;100.00
2339;BME280;1180;51.438;6.978;2023-02-02T01:18:40;100712.47;;;9.04;100.00
2339;BME280;1180;51.438;6.978;2023-02-02T01:21:08;100713.97;;;9.08;100.00
2339;BME280;1180;51.438;6.978;2023-02-02T01:23:34;100715.66;;;9.09;100.00
2339;BME280;1180;51.438;6.978;2023-02-02T01:26:02;100706.34;;;9.26;100.00
2339;BME280;1180;51.438;6.978;2023-02-02T01:28:28;100710.78;;;9.22;100.00
2339;BME280;1180;51.438;6.978;2023-02-02T01:30:54;100716.88;;;9.20;100.00
2339;BME280;1180;51.438;6.978;2023-02-02T01:33:20;100710.19;;;8.98;100.00
2339;BME280;1180;51.438;6.978;2023-02-02T01:35:46;100709.00;;;9.05;100.00
2339;BME280;1180;51.438;6.978;2023-02-02T01:38:12;100708.44;;;9.18;100.00
2339;BME280;1180;51.438;6.978;2023-02-02T01:41:04;100716.63;;;9.44;100.00
2339;BME280;1180;51.438;6.978;2023-02-02T01:46:09;100713.31;;;9.42;100.00
2339;BME280;1180;51.438;6.978;2023-02-02T01:48:35;100717.09;;;9.52;100.00
2339;BME280;1180;51.438;6.978;2023-02-02T01:51:05;100714.41;;;9.55;100.00
2339;BME280;1180;51.438;6.978;2023-02-02T01:53:32;100719.91;;;9.47;100.00
2339;BME280;1180;51.438;6.978;2023-02-02T01:55:58;100728.50;;;9.27;100.00
2339;BME280;1180;51.438;6.978;2023-02-02T01:58:28;100725.44;;;9.38;100.00
2339;BME280;1180;51.438;6.978;2023-02-02T02:00:55;100728.00;;;9.38;100.00
2339;BME280;1180;51.438;6.978;2023-02-02T02:03:23;100731.66;;;9.51;100.00
2339;BME280;1180;51.438;6.978;2023-02-02T02:06:01;100737.69;;;9.50;100.00
2339;BME280;1180;51.438;6.978;2023-02-02T02:08:37;100738.34;;;9.54;100.00
2339;BME280;1180;51.438;6.978;2023-02-02T02:11:04;100736.69;;;9.53;100.00
2339;BME280;1180;51.438;6.978;2023-02-02T02:13:31;100739.88;;;9.58;100.00
2339;BME280;1180;51.438;6.978;2023-02-02T02:22:15;100737.41;;;9.57;100.00
2339;BME280;1180;51.438;6.978;2023-02-02T02:36:47;100740.75;;;9.39;100.00
2339;BME280;1180;51.438;6.978;2023-02-02T02:40:00;100735.38;;;9.44;100.00
2339;BME280;1180;51.438;6.978;2023-02-02T02:42:10;100730.34;;;9.43;100.00
2339;BME280;1180;51.438;6.978;2023-02-02T02:44:37;100727.66;;;9.46;100.00
2339;BME280;1180;51.438;6.978;2023-02-02T02:47:02;100727.19;;;9.55;100.00
2339;BME280;1180;51.438;6.978;2023-02-02T02:49:28;100730.38;;;9.60;100.00
2339;BME280;1180;51.438;6.978;2023-02-02T02:51:54;100732.47;;;9.52;100.00
2339;BME280;1180;51.438;6.978;2023-02-02T02:54:28;100737.19;;;9.42;100.00
2339;BME280;1180;51.438;6.978;2023-02-02T03:07:47;100733.94;;;9.58;100.00
2339;BME280;1180;51.438;6.978;2023-02-02T03:10:18;100729.34;;;9.64;100.00
2339;BME280;1180;51.438;6.978;2023-02-02T03:12:49;100736.03;;;9.67;100.00
2339;BME280;1180;51.438;6.978;2023-02-02T03:15:16;100730.63;;;9.73;100.00
2339;BME280;1180;51.438;6.978;2023-02-02T03:17:44;100736.94;;;9.66;100.00
2339;BME280;1180;51.438;6.978;2023-02-02T03:20:10;100728.16;;;9.72;100.00
2339;BME280;1180;51.438;6.978;2023-02-02T03:22:35;100724.16;;;9.83;100.00
2339;BME280;1180;51.438;6.978;2023-02-02T03:25:01;100720.16;;;9.78;100.00
2339;BME280;1180;51.438;6.978;2023-02-02T03:27:26;100723.53;;;9.61;100.00
2339;BME280;1180;51.438;6.978;2023-02-02T03:29:52;100717.28;;;9.66;100.00
2339;BME280;1180;51.438;6.978;2023-02-02T03:32:17;100721.88;;;9.60;100.00
2339;BME280;1180;51.438;6.978;2023-02-02T03:34:43;100729.19;;;9.67;100.00
2339;BME280;1180;51.438;6.978;2023-02-02T03:37:08;100727.69;;;9.63;100.00
2339;BME280;1180;51.438;6.978;2023-02-02T03:39:33;100719.38;;;9.58;100.00
2339;BME280;1180;51.438;6.978;2023-02-02T03:41:59;100725.19;;;9.62;100.00
2339;BME280;1180;51.438;6.978;2023-02-02T03:44:24;100730.38;;;9.60;100.00
2339;BME280;1180;51.438;6.978;2023-02-02T03:46:52;100727.81;;;9.60;100.00
2339;BME280;1180;51.438;6.978;2023-02-02T03:49:18;100729.34;;;9.64;100.00
2339;BME280;1180;51.438;6.978;2023-02-02T03:51:43;100724.88;;;9.68;100.00
2339;BME280;1180;51.438;6.978;2023-02-02T03:54:08;100728.34;;;9.67;100.00
2339;BME280;1180;51.438;6.978;2023-02-02T03:56:33;100731.66;;;9.51;100.00
2339;BME280;1180;51.438;6.978;2023-02-02T03:58:59;100728.09;;;9.54;100.00
2339;BME280;1180;51.438;6.978;2023-02-02T04:01:26;100728.72;;;9.59;100.00
2339;BME280;1180;51.438;6.978;2023-02-02T04:03:53;100731.91;;;9.64;100.00
2339;BME280;1180;51.438;6.978;2023-02-02T04:06:19;100727.41;;;9.70;100.00
2339;BME280;1180;51.438;6.978;2023-02-02T04:08:44;100737.78;;;9.66;100.00
2339;BME280;1180;51.438;6.978;2023-02-02T04:11:10;100742.91;;;9.66;100.00
2339;BME280;1180;51.438;6.978;2023-02-02T04:13:36;100731.78;;;9.85;100.00
2339;BME280;1180;51.438;6.978;2023-02-02T04:16:01;100737.59;;;9.89;100.00
2339;BME280;1180;51.438;6.978;2023-02-02T04:18:27;100740.66;;;9.78;100.00
2339;BME280;1180;51.438;6.978;2023-02-02T04:20:57;100735.38;;;9.81;100.00
2339;BME280;1180;51.438;6.978;2023-02-02T04:23:23;100736.75;;;9.88;100.00
2339;BME280;1180;51.438;6.978;2023-02-02T04:25:49;100737.66;;;9.87;100.00
2339;BME280;1180;51.438;6.978;2023-02-02T04:28:15;100735.31;;;9.82;100.00
2339;BME280;1180;51.438;6.978;2023-02-02T04:30:40;100743.69;;;9.86;100.00
2339;BME280;1180;51.438;6.978;2023-02-02T04:33:06;100742.13;;;9.83;100.00
2339;BME280;1180;51.438;6.978;2023-02-02T04:35:31;100738.50;;;9.88;100.00
2339;BME280;1180;51.438;6.978;2023-02-02T04:37:56;100738.84;;;9.80;100.00
2339;BME280;1180;51.438;6.978;2023-02-02T04:40:22;100738.72;;;9.83;100.00
2339;BME280;1180;51.438;6.978;2023-02-02T04:42:47;100736.75;;;9.88;100.00
2339;BME280;1180;51.438;6.978;2023-02-02T04:45:12;100735.78;;;9.91;100.00
2339;BME280;1180;51.438;6.978;2023-02-02T04:47:38;100740.97;;;9.89;100.00
2339;BME280;1180;51.438;6.978;2023-02-02T04:50:03;100741.66;;;9.93;100.00
2339;BME280;1180;51.438;6.978;2023-02-02T04:52:29;100744.00;;;9.97;100.00
2339;BME280;1180;51.438;6.978;2023-02-02T04:54:54;100740.97;;;9.89;100.00
2339;BME280;1180;51.438;6.978;2023-02-02T04:57:19;100741.81;;;9.90;100.00
2339;BME280;1180;51.438;6.978;2023-02-02T04:59:45;100740.31;;;9.86;100.00
2339;BME280;1180;51.438;6.978;2023-02-02T05:02:10;100741.81;;;9.90;100.00
2339;BME280;1180;51.438;6.978;2023-02-02T05:04:36;100745.19;;;9.90;100.00
2339;BME280;1180;51.438;6.978;2023-02-02T05:07:02;100740.06;;;9.90;100.00
2339;BME280;1180;51.438;6.978;2023-02-02T05:09:28;100739.22;;;10.07;100.00
2339;BME280;1180;51.438;6.978;2023-02-02T05:11:53;100736.91;;;10.03;100.00
2339;BME280;1180;51.438;6.978;2023-02-02T05:14:19;100741.13;;;10.04;100.00
2339;BME280;1180;51.438;6.978;2023-02-02T05:16:44;100737.97;;;9.99;100.00
2339;BME280;1180;51.438;6.978;2023-02-02T05:19:12;100734.34;;;10.03;100.00
2339;BME280;1180;51.438;6.978;2023-02-02T05:21:41;100734.72;;;9.95;100.00
2339;BME280;1180;51.438;6.978;2023-02-02T05:24:06;100730.34;;;9.79;100.00
2339;BME280;1180;51.438;6.978;2023-02-02T05:26:32;100724.44;;;9.77;100.00
2339;BME280;1180;51.438;6.978;2023-02-02T05:28:57;100730.94;;;9.85;100.00
2339;BME280;1180;51.438;6.978;2023-02-02T05:31:22;100738.94;;;9.78;100.00
2339;BME280;1180;51.438;6.978;2023-02-02T05:33:48;100739.41;;;9.87;100.00
2339;BME280;1180;51.438;6.978;2023-02-02T05:36:13;100735.09;;;9.87;100.00
2339;BME280;1180;51.438;6.978;2023-02-02T05:38:39;100753.19;;;9.84;100.00
2339;BME280;1180;51.438;6.978;2023-02-02T05:41:04;100752.66;;;9.95;100.00
2339;BME280;1180;51.438;6.978;2023-02-02T05:43:31;100743.78;;;9.85;100.00
2339;BME280;1180;51.438;6.978;2023-02-02T05:45:56;100744.22;;;9.93;100.00
2339;BME280;1180;51.438;6.978;2023-02-02T05:48:22;100752.59;;;9.96;100.00
2339;BME280;1180;51.438;6.978;2023-02-02T05:50:56;100752.44;;;10.00;100.00
2339;BME280;1180;51.438;6.978;2023-02-02T05:53:23;100749.94;;;9.80;100.00
2339;BME280;1180;51.438;6.978;2023-02-02T05:55:48;100744.59;;;9.85;100.00
2339;BME280;1180;51.438;6.978;2023-02-02T05:58:14;100751.06;;;9.75;100.00
2339;BME280;1180;51.438;6.978;2023-02-02T06:00:39;100758.31;;;9.66;100.00
2339;BME280;1180;51.438;6.978;2023-02-02T06:03:05;100753.53;;;9.76;100.00
2339;BME280;1180;51.438;6.978;2023-02-02T06:05:30;100753.31;;;9.63;100.00
2339;BME280;1180;51.438;6.978;2023-02-02T06:07:55;100766.34;;;9.59;100.00
2339;BME280;1180;51.438;6.978;2023-02-02T06:10:20;100765.75;;;9.71;100.00
2339;BME280;1180;51.438;6.978;2023-02-02T06:12:46;100762.78;;;9.80;100.00
2339;BME280;1180;51.438;6.978;2023-02-02T06:15:11;100764.19;;;9.86;100.00
2339;BME280;1180;51.438;6.978;2023-02-02T06:17:36;100763.72;;;9.78;100.00
2339;BME280;1180;51.438;6.978;2023-02-02T06:20:03;100766.00;;;9.84;100.00
2339;BME280;1180;51.438;6.978;2023-02-02T06:22:28;100768.25;;;9.90;99.18
2339;BME280;1180;51.438;6.978;2023-02-02T06:24:55;100766.28;;;9.78;100.00
2339;BME280;1180;51.438;6.978;2023-02-02T06:27:20;100760.25;;;9.79;100.00
2339;BME280;1180;51.438;6.978;2023-02-02T06:29:46;100767.13;;;9.78;99.90
2339;BME280;1180;51.438;6.978;2023-02-02T06:32:11;100773.69;;;9.84;99.89
2339;BME280;1180;51.438;6.978;2023-02-02T06:34:37;100766.59;;;9.72;100.00
2339;BME280;1180;51.438;6.978;2023-02-02T06:37:02;100760.91;;;9.65;100.00
2339;BME280;1180;51.438;6.978;2023-02-02T06:39:27;100763.38;;;9.86;100.00
2339;BME280;1180;51.438;6.978;2023-02-02T06:41:53;100764.72;;;9.93;99.79
2339;BME280;1180;51.438;6.978;2023-02-02T06:44:18;100772.38;;;9.94;99.93
2339;BME280;1180;51.438;6.978;2023-02-02T06:46:45;100776.19;;;10.03;99.20
2339;BME280;1180;51.438;6.978;2023-02-02T06:49:10;100781.38;;;9.84;100.00
2339;BME280;1180;51.438;6.978;2023-02-02T06:51:35;100780.25;;;9.90;99.78
2339;BME280;1180;51.438;6.978;2023-02-02T06:54:01;100785.50;;;9.69;100.00
2339;BME280;1180;51.438;6.978;2023-02-02T06:56:28;100777.91;;;9.67;100.00
2339;BME280;1180;51.438;6.978;2023-02-02T06:58:53;100788.81;;;9.71;100.00
2339;BME280;1180;51.438;6.978;2023-02-02T07:01:19;100787.66;;;9.78;100.00
2339;BME280;1180;51.438;6.978;2023-02-02T07:03:47;100795.72;;;9.88;99.17
2339;BME280;1180;51.438;6.978;2023-02-02T07:06:16;100787.06;;;9.91;100.00
2339;BME280;1180;51.438;6.978;2023-02-02T07:08:42;100795.25;;;9.80;99.72
2339;BME280;1180;51.438;6.978;2023-02-02T07:11:08;100794.00;;;9.89;98.92
2339;BME280;1180;51.438;6.978;2023-02-02T07:13:33;100795.19;;;9.81;98.90
2339;BME280;1180;51.438;6.978;2023-02-02T07:15:59;100795.09;;;9.83;100.00
2339;BME280;1180;51.438;6.978;2023-02-02T07:18:24;100793.88;;;9.73;100.00
2339;BME280;1180;51.438;6.978;2023-02-02T07:20:49;100798.56;;;9.82;100.00
2339;BME280;1180;51.438;6.978;2023-02-02T07:23:15;100799.94;;;9.89;99.79
2339;BME280;1180;51.438;6.978;2023-02-02T07:25:40;100805.06;;;9.89;100.00
2339;BME280;1180;51.438;6.978;2023-02-02T07:28:05;100801.69;;;9.89;100.00
2339;BME280;1180;51.438;6.978;2023-02-02T07:30:31;100802.31;;;9.75;100.00
2339;BME280;1180;51.438;6.978;2023-02-02T07:32:57;100807.84;;;9.85;100.00
2339;BME280;1180;51.438;6.978;2023-02-02T07:35:23;100820.44;;;9.89;100.00
2339;BME280;1180;51.438;6.978;2023-02-02T07:37:52;100817.22;;;10.03;100.00
2339;BME280;1180;51.438;6.978;2023-02-02T07:40:18;100818.97;;;10.20;99.06
2339;BME280;1180;51.438;6.978;2023-02-02T07:42:47;100806.00;;;10.06;100.00
2339;BME280;1180;51.438;6.978;2023-02-02T07:45:13;100814.41;;;9.90;100.00
2339;BME280;1180;51.438;6.978;2023-02-02T07:47:39;100809.28;;;9.90;100.00
2339;BME280;1180;51.438;6.978;2023-02-02T07:50:04;100819.38;;;9.93;100.00
2339;BME280;1180;51.438;6.978;2023-02-02T07:52:29;100824.59;;;9.92;100.00
2339;BME280;1180;51.438;6.978;2023-02-02T07:54:55;100817.47;;;9.99;100.00
2339;BME280;1180;51.438;6.978;2023-02-02T07:57:21;100819.47;;;10.09;100.00
2339;BME280;1180;51.438;6.978;2023-02-02T07:59:46;100822.25;;;9.87;100.00
2339;BME280;1180;51.438;6.978;2023-02-02T08:02:14;100820.28;;;9.92;100.00
2339;BME280;1180;51.438;6.978;2023-02-02T08:04:39;100831.09;;;9.99;100.00
2339;BME280;1180;51.438;6.978;2023-02-02T08:07:04;100827.78;;;9.97;100.00
2339;BME280;1180;51.438;6.978;2023-02-02T08:09:30;100833.75;;;9.97;100.00
2339;BME280;1180;51.438;6.978;2023-02-02T08:11:57;100839.47;;;10.03;100.00
2339;BME280;1180;51.438;6.978;2023-02-02T08:14:25;100843.56;;;10.07;100.00
2339;BME280;1180;51.438;6.978;2023-02-02T08:16:51;100848.84;;;10.04;100.00
2339;BME280;1180;51.438;6.978;2023-02-02T08:19:16;100843.09;;;9.99;100.00
2339;BME280;1180;51.438;6.978;2023-02-02T08:21:41;100852.22;;;10.04;100.00
2339;BME280;1180;51.438;6.978;2023-02-02T08:24:07;100853.06;;;10.05;100.00
2339;BME280;1180;51.438;6.978;2023-02-02T08:26:32;100853.66;;;10.10;100.00
2339;BME280;1180;51.438;6.978;2023-02-02T08:29:05;100852.91;;;10.08;100.00
2339;BME280;1180;51.438;6.978;2023-02-02T08:31:36;100857.59;;;10.00;100.00
2339;BME280;1180;51.438;6.978;2023-02-02T08:34:03;100848.94;;;9.83;100.00
2339;BME280;1180;51.438;6.978;2023-02-02T08:36:29;100851.50;;;9.83;100.00
2339;BME280;1180;51.438;6.978;2023-02-02T08:38:59;100853.50;;;9.95;100.00
2339;BME280;1180;51.438;6.978;2023-02-02T08:41:25;100853.91;;;9.86;100.00
2339;BME280;1180;51.438;6.978;2023-02-02T08:43:50;100861.81;;;10.01;100.00
2339;BME280;1180;51.438;6.978;2023-02-02T08:46:17;100862.78;;;9.98;100.00
2339;BME280;1180;51.438;6.978;2023-02-02T08:48:43;100865.34;;;9.98;100.00
2339;BME280;1180;51.438;6.978;2023-02-02T08:51:11;100870.28;;;10.20;100.00
2339;BME280;1180;51.438;6.978;2023-02-02T08:53:36;100872.44;;;10.10;100.00
2339;BME280;1180;51.438;6.978;2023-02-02T08:56:08;100874.38;;;10.05;100.00
2339;BME280;1180;51.438;6.978;2023-02-02T08:58:34;100884.66;;;10.05;100.00
2339;BME280;1180;51.438;6.978;2023-02-02T09:01:14;100891.59;;;9.84;100.00
2339;BME280;1180;51.438;6.978;2023-02-02T09:03:40;100890.22;;;9.77;100.00
2339;BME280;1180;51.438;6.978;2023-02-02T09:06:07;100895.84;;;9.85;100.00
2339;BME280;1180;51.438;6.978;2023-02-02T09:08:33;100889.13;;;9.82;100.00
2339;BME280;1180;51.438;6.978;2023-02-02T09:11:09;100892.06;;;9.92;100.00
2339;BME280;1180;51.438;6.978;2023-02-02T09:13:36;100903.75;;;9.80;100.00
2339;BME280;1180;51.438;6.978;2023-02-02T09:16:03;100902.28;;;9.75;100.00
2339;BME280;1180;51.438;6.978;2023-02-02T09:18:29;100908.75;;;9.64;100.00
2339;BME280;1180;51.438;6.978;2023-02-02T09:20:58;100921.00;;;9.77;100.00
2339;BME280;1180;51.438;6.978;2023-02-02T09:23:24;100921.81;;;9.77;100.00
2339;BME280;1180;51.438;6.978;2023-02-02T09:25:50;100936.94;;;10.03;100.00
2339;BME280;1180;51.438;6.978;2023-02-02T09:28:15;100935.13;;;9.86;100.00
2339;BME280;1180;51.438;6.978;2023-02-02T09:30:40;100942.44;;;9.55;100.00
2339;BME280;1180;51.438;6.978;2023-02-02T09:33:06;100941.91;;;9.67;100.00
2339;BME280;1180;51.438;6.978;2023-02-02T09:35:31;100952.09;;;9.69;100.00
2339;BME280;1180;51.438;6.978;2023-02-02T09:37:56;100950.66;;;9.82;100.00
2339;BME280;1180;51.438;6.978;2023-02-02T09:40:22;100952.59;;;9.96;100.00
2339;BME280;1180;51.438;6.978;2023-02-02T09:43:24;100961.81;;;9.81;100.00
2339;BME280;1180;51.438;6.978;2023-02-02T09:46:06;100979.53;;;9.86;100.00
2339;BME280;1180;51.438;6.978;2023-02-02T09:48:45;100986.41;;;9.86;100.00
2339;BME280;1180;51.438;6.978;2023-02-02T09:51:17;100984.16;;;9.59;100.00
2339;BME280;1180;51.438;6.978;2023-02-02T09:53:49;100982.03;;;9.68;100.00
2339;BME280;1180;51.438;6.978;2023-02-02T09:56:23;100987.63;;;9.77;100.00
2339;BME280;1180;51.438;6.978;2023-02-02T09:58:53;100997.13;;;9.75;100.00
2339;BME280;1180;51.438;6.978;2023-02-02T10:01:24;100988.25;;;9.82;100.00
2339;BME280;1180;51.438;6.978;2023-02-02T10:06:25;100995.63;;;9.90;100.00
2339;BME280;1180;51.438;6.978;2023-02-02T10:08:54;100996.03;;;9.80;100.00
2339;BME280;1180;51.438;6.978;2023-02-02T10:11:50;100988.75;;;9.90;100.00
2339;BME280;1180;51.438;6.978;2023-02-02T10:14:33;100999.41;;;9.81;100.00
2339;BME280;1180;51.438;6.978;2023-02-02T10:17:57;101003.94;;;9.95;100.00
2339;BME280;1180;51.438;6.978;2023-02-02T10:20:03;101000.88;;;9.87;100.00
2339;BME280;1180;51.438;6.978;2023-02-02T10:22:32;100988.97;;;9.86;100.00
2339;BME280;1180;51.438;6.978;2023-02-02T10:24:58;101005.31;;;9.83;100.00
2339;BME280;1180;51.438;6.978;2023-02-02T10:27:36;101010.44;;;9.83;100.00
2339;BME280;1180;51.438;6.978;2023-02-02T10:30:22;101012.72;;;9.89;100.00
2339;BME280;1180;51.438;6.978;2023-02-02T10:33:04;101015.16;;;9.92;100.00
2339;BME280;1180;51.438;6.978;2023-02-02T10:35:44;101020.50;;;10.07;100.00
2339;BME280;1180;51.438;6.978;2023-02-02T10:38:29;101021.41;;;10.06;100.00
2339;BME280;1180;51.438;6.978;2023-02-02T10:41:03;101013.63;;;10.07;100.00
2339;BME280;1180;51.438;6.978;2023-02-02T10:46:31;101019.31;;;10.14;100.00
2339;BME280;1180;51.438;6.978;2023-02-02T10:52:12;101013.56;;;9.90;100.00
2339;BME280;1180;51.438;6.978;2023-02-02T10:57:11;101013.56;;;10.09;100.00
2339;BME280;1180;51.438;6.978;2023-02-02T10:59:56;101020.38;;;10.10;100.00
2339;BME280;1180;51.438;6.978;2023-02-02T11:02:23;101024.03;;;10.23;100.00
2339;BME280;1180;51.438;6.978;2023-02-02T11:04:48;101018.56;;;10.31;100.00
2339;BME280;1180;51.438;6.978;2023-02-02T11:07:32;101029.03;;;10.26;99.58
2339;BME280;1180;51.438;6.978;2023-02-02T11:09:57;101033.66;;;10.18;100.00
2339;BME280;1180;51.438;6.978;2023-02-02T11:15:00;101040.00;;;10.11;100.00
2339;BME280;1180;51.438;6.978;2023-02-02T11:17:29;101037.69;;;10.24;100.00
2339;BME280;1180;51.438;6.978;2023-02-02T11:19:55;101028.16;;;10.28;100.00
2339;BME280;1180;51.438;6.978;2023-02-02T11:22:30;101029.16;;;10.23;99.78
2339;BME280;1180;51.438;6.978;2023-02-02T11:25:01;101030.00;;;10.05;100.00
2339;BME280;1180;51.438;6.978;2023-02-02T11:27:31;101025.63;;;10.07;100.00
2339;BME280;1180;51.438;6.978;2023-02-02T11:29:58;101031.09;;;10.18;100.00
2339;BME280;1180;51.438;6.978;2023-02-02T11:37:32;101032.25;;;10.13;100.00
2339;BME280;1180;51.438;6.978;2023-02-02T11:42:49;101031.47;;;10.30;100.00
2339;BME280;1180;51.438;6.978;2023-02-02T11:47:51;101023.63;;;10.33;100.00
2339;BME280;1180;51.438;6.978;2023-02-02T11:50:25;101018.16;;;10.40;98.39
2339;BME280;1180;51.438;6.978;2023-02-02T11:52:52;101021.22;;;10.30;99.54
2339;BME280;1180;51.438;6.978;2023-02-02T11:55:22;101021.81;;;10.35;100.00
2339;BME280;1180;51.438;6.978;2023-02-02T11:58:24;101026.41;;;10.47;98.84
2339;BME280;1180;51.438;6.978;2023-02-02T12:00:57;101018.09;;;10.42;98.23
2339;BME280;1180;51.438;6.978;2023-02-02T12:03:35;101017.06;;;10.46;98.93
2339;BME280;1180;51.438;6.978;2023-02-02T12:06:20;101019.03;;;10.39;98.50
2339;BME280;1180;51.438;6.978;2023-02-02T12:08:46;101023.94;;;10.46;98.56
2339;BME280;1180;51.438;6.978;2023-02-02T12:13:57;101018.44;;;10.53;98.57
2339;BME280;1180;51.438;6.978;2023-02-02T12:16:38;101025.97;;;10.57;97.62
2339;BME280;1180;51.438;6.978;2023-02-02T12:25:02;101019.03;;;10.39;99.58
2339;BME280;1180;51.438;6.978;2023-02-02T12:27:38;101024.47;;;10.52;98.67
2339;BME280;1180;51.438;6.978;2023-02-02T12:35:48;101026.19;;;10.33;98.85
2339;BME280;1180;51.438;6.978;2023-02-02T12:43:50;101027.44;;;10.62;98.22
2339;BME280;1180;51.438;6.978;2023-02-02T12:49:02;101020.66;;;10.42;98.54
2339;BME280;1180;51.438;6.978;2023-02-02T12:56:51;101027.53;;;10.61;98.55
2339;BME280;1180;51.438;6.978;2023-02-02T12:59:23;101017.56;;;10.72;97.41
2339;BME280;1180;51.438;6.978;2023-02-02T13:08:05;101015.63;;;10.77;97.71
2339;BME280;1180;51.438;6.978;2023-02-02T13:10:36;101023.22;;;10.61;98.45
2339;BME280;1180;51.438;6.978;2023-02-02T13:13:08;101013.09;;;10.58;98.14
2339;BME280;1180;51.438;6.978;2023-02-02T13:15:36;101019.28;;;10.72;99.21
2339;BME280;1180;51.438;6.978;2023-02-02T13:18:09;101026.28;;;10.87;99.26
2339;BME280;1180;51.438;6.978;2023-02-02T13:20:46;101024.38;;;10.91;97.64
2339;BME280;1180;51.438;6.978;2023-02-02T13:23:18;101028.69;;;10.90;97.61
2339;BME280;1180;51.438;6.978;2023-02-02T13:25:48;101026.59;;;10.98;97.89
2339;BME280;1180;51.438;6.978;2023-02-02T13:28:23;101028.03;;;11.04;97.37
2339;BME280;1180;51.438;6.978;2023-02-02T13:30:55;101027.47;;;10.80;97.51
2339;BME280;1180;51.438;6.978;2023-02-02T13:33:27;101032.53;;;10.81;98.51
2339;BME280;1180;51.438;6.978;2023-02-02T13:35:56;101030.81;;;10.82;99.12
2339;BME280;1180;51.438;6.978;2023-02-02T13:38:25;101036.75;;;10.65;97.81
2339;BME280;1180;51.438;6.978;2023-02-02T13:40:56;101046.16;;;10.64;98.51
2339;BME280;1180;51.438;6.978;2023-02-02T13:43:32;101046.59;;;10.55;100.00
2339;BME280;1180;51.438;6.978;2023-02-02T13:46:10;101046.50;;;10.57;100.00
2339;BME280;1180;51.438;6.978;2023-02-02T13:54:36;101051.72;;;10.55;100.00
2339;BME280;1180;51.438;6.978;2023-02-02T13:57:18;101045.97;;;10.69;100.00
2339;BME280;1180;51.438;6.978;2023-02-02T14:02:46;101047.97;;;10.62;100.00
2339;BME280;1180;51.438;6.978;2023-02-02T14:05:30;101041.34;;;10.76;100.00
2339;BME280;1180;51.438;6.978;2023-02-02T14:08:01;101038.72;;;10.77;100.00
2339;BME280;1180;51.438;6.978;2023-02-02T14:10:42;101034.94;;;10.84;100.00
2339;BME280;1180;51.438;6.978;2023-02-02T14:15:58;101046.41;;;10.77;100.00
2339;BME280;1180;51.438;6.978;2023-02-02T14:27:00;101060.81;;;10.62;100.00
2339;BME280;1180;51.438;6.978;2023-02-02T14:34:38;101060.00;;;10.62;100.00
2339;BME280;1180;51.438;6.978;2023-02-02T14:48:37;101059.41;;;10.74;100.00
2339;BME280;1180;51.438;6.978;2023-02-02T14:51:12;101066.34;;;10.72;100.00
2339;BME280;1180;51.438;6.978;2023-02-02T14:53:49;101068.31;;;10.67;100.00
2339;BME280;1180;51.438;6.978;2023-02-02T14:56:16;101070.88;;;10.67;100.00
2339;BME280;1180;51.438;6.978;2023-02-02T15:17:21;101090.28;;;10.73;100.00
2339;BME280;1180;51.438;6.978;2023-02-02T15:20:18;101085.53;;;10.82;100.00
2339;BME280;1180;51.438;6.978;2023-02-02T15:23:04;101083.28;;;10.76;100.00
2339;BME280;1180;51.438;6.978;2023-02-02T15:25:47;101087.69;;;10.73;100.00
2339;BME280;1180;51.438;6.978;2023-02-02T15:28:28;101097.00;;;10.75;100.00
2339;BME280;1180;51.438;6.978;2023-02-02T15:33:58;101104.72;;;10.75;100.00
2339;BME280;1180;51.438;6.978;2023-02-02T15:36:27;101101.09;;;10.79;100.00
2339;BME280;1180;51.438;6.978;2023-02-02T15:38:58;101111.31;;;10.81;100.00
2339;BME280;1180;51.438;6.978;2023-02-02T15:41:32;101110.00;;;10.72;100.00
2339;BME280;1180;51.438;6.978;2023-02-02T15:44:01;101109.91;;;10.74;100.00
2339;BME280;1180;51.438;6.978;2023-02-02T15:46:41;101111.56;;;10.75;100.00